Time;durP1;ratioP1;P1;durP2;ratioP2;P2;SDS_P1;SDS_P2;PMS_P1;PMS_P2;Temp;Humidity;BMP_temperature;BMP_pressure;BME280_temperature;BME280_humidity;BME280_pressure;Samples;Min_cycle;Max_cycle;Signal;HPM_P1;HPM_P2
2023/09/11 00:01:53;;;;;;;20.77;14.40;;;20.80;99.90;;;;;;4996925;28;20080;-75
2023/09/11 00:04:19;;;;;;;19.98;14.65;;;20.80;99.90;;;;;;5014113;28;20090;-75
2023/09/11 00:06:45;;;;;;;23.75;14.93;;;20.80;99.90;;;;;;4996095;28;20042;-75
2023/09/11 00:09:11;;;;;;;17.98;13.68;;;20.80;99.90;;;;;;5007722;28;20045;-75
2023/09/11 00:11:36;;;;;;;19.75;14.40;;;20.80;99.90;;;;;;5012461;28;20130;-75
2023/09/11 00:14:02;;;;;;;19.42;14.13;;;20.80;99.90;;;;;;5013073;28;20049;-75
2023/09/11 00:16:28;;;;;;;19.67;14.50;;;20.70;99.90;;;;;;5014964;28;20304;-74
2023/09/11 00:18:56;;;;;;;18.98;13.70;;;20.70;99.90;;;;;;5014926;28;20041;-75
2023/09/11 00:21:22;;;;;;;19.40;14.50;;;20.80;99.90;;;;;;5014220;28;20514;-75
2023/09/11 00:23:48;;;;;;;21.95;13.77;;;20.70;99.90;;;;;;5014369;28;20052;-75
2023/09/11 00:26:14;;;;;;;18.38;14.43;;;20.70;99.90;;;;;;4992802;28;20121;-75
2023/09/11 00:28:39;;;;;;;20.50;13.50;;;20.70;99.90;;;;;;4977699;28;20519;-76
2023/09/11 00:31:05;;;;;;;18.85;12.80;;;20.70;99.90;;;;;;5010751;28;20077;-75
2023/09/11 00:33:30;;;;;;;22.95;13.50;;;20.70;99.90;;;;;;5015663;28;20046;-75
2023/09/11 00:35:56;;;;;;;18.58;13.63;;;20.60;99.90;;;;;;5014717;28;20034;-75
2023/09/11 00:38:22;;;;;;;21.00;14.10;;;20.70;99.90;;;;;;5014732;28;20568;-75
2023/09/11 00:40:47;;;;;;;19.77;13.57;;;20.60;99.90;;;;;;5014510;28;20088;-74
2023/09/11 00:43:13;;;;;;;21.67;13.45;;;20.70;99.90;;;;;;5012941;28;20045;-75
2023/09/11 00:45:39;;;;;;;19.05;13.35;;;20.60;99.90;;;;;;4996079;28;20089;-75
2023/09/11 00:48:04;;;;;;;18.60;13.23;;;20.70;99.90;;;;;;5014307;28;20045;-75
2023/09/11 00:50:31;;;;;;;23.58;13.80;;;20.60;99.90;;;;;;5013277;28;20053;-75
2023/09/11 00:52:57;;;;;;;22.75;14.30;;;20.60;99.90;;;;;;5012809;28;20548;-75
2023/09/11 00:55:23;;;;;;;21.92;13.05;;;20.60;99.90;;;;;;5014453;28;20120;-75
2023/09/11 00:57:50;;;;;;;20.50;13.15;;;20.60;99.90;;;;;;5014532;28;20127;-75
2023/09/11 01:00:16;;;;;;;22.58;14.13;;;20.60;99.90;;;;;;5014232;28;20050;-75
2023/09/11 01:02:41;;;;;;;21.67;14.18;;;20.60;99.90;;;;;;5014070;28;20171;-75
2023/09/11 01:05:08;;;;;;;20.30;13.15;;;20.60;99.90;;;;;;5012318;28;20057;-74
2023/09/11 01:07:37;;;;;;;17.45;13.48;;;20.60;99.90;;;;;;4996388;28;20050;-75
2023/09/11 01:10:06;;;;;;;20.70;13.55;;;20.60;99.90;;;;;;5013906;28;20533;-75
2023/09/11 01:12:36;;;;;;;22.50;13.43;;;20.60;99.90;;;;;;4995738;28;20038;-75
2023/09/11 01:15:04;;;;;;;19.52;13.50;;;20.60;99.90;;;;;;5013813;28;20116;-75
2023/09/11 01:17:53;;;;;;;18.98;12.65;;;20.50;99.90;;;;;;5013762;28;20092;-75
2023/09/11 01:20:53;;;;;;;18.92;13.48;;;20.50;99.90;;;;;;4994954;28;20061;-75
2023/09/11 01:23:55;;;;;;;18.38;13.15;;;20.40;99.90;;;;;;4996993;28;20395;-75
2023/09/11 01:26:38;;;;;;;20.38;13.13;;;20.40;99.90;;;;;;4966122;28;20081;-75
2023/09/11 01:29:09;;;;;;;19.17;13.40;;;20.40;99.90;;;;;;4994285;28;20172;-76
2023/09/11 01:31:37;;;;;;;19.83;14.13;;;20.40;99.90;;;;;;4994032;28;20050;-76
2023/09/11 01:34:07;;;;;;;17.75;12.73;;;20.40;99.90;;;;;;5007796;28;20064;-75
2023/09/11 01:36:33;;;;;;;22.05;13.13;;;20.40;99.90;;;;;;5013480;28;20037;-75
2023/09/11 01:38:59;;;;;;;21.45;12.98;;;20.40;99.90;;;;;;5013313;28;20053;-74
2023/09/11 01:41:31;;;;;;;20.52;12.88;;;20.40;99.90;;;;;;5013775;28;20125;-74
2023/09/11 01:44:02;;;;;;;17.13;12.13;;;20.30;99.90;;;;;;5012126;28;20125;-75
2023/09/11 01:46:29;;;;;;;22.63;13.23;;;20.30;99.90;;;;;;5014372;28;20045;-75
2023/09/11 01:48:56;;;;;;;21.02;12.63;;;20.40;99.90;;;;;;5013325;28;20042;-74
2023/09/11 01:51:24;;;;;;;19.17;12.85;;;20.30;99.90;;;;;;5011836;28;20556;-74
2023/09/11 01:53:50;;;;;;;18.50;12.80;;;20.30;99.90;;;;;;4993899;28;20042;-75
2023/09/11 01:56:16;;;;;;;17.52;12.52;;;20.30;99.90;;;;;;5015918;28;20066;-75
2023/09/11 01:58:43;;;;;;;20.85;13.18;;;20.20;99.90;;;;;;5016245;28;20068;-76
2023/09/11 02:01:09;;;;;;;16.55;12.25;;;20.30;99.90;;;;;;5019371;28;20130;-75
2023/09/11 02:03:34;;;;;;;18.05;12.90;;;20.30;99.90;;;;;;5018451;28;20129;-75
2023/09/11 02:06:00;;;;;;;22.58;13.05;;;20.20;99.90;;;;;;5019875;28;20069;-75
2023/09/11 02:08:26;;;;;;;24.08;13.52;;;20.30;99.90;;;;;;5019898;28;20121;-75
2023/09/11 02:10:53;;;;;;;19.65;13.35;;;20.30;99.90;;;;;;5009410;28;20046;-76
2023/09/11 02:13:19;;;;;;;20.00;12.88;;;20.30;99.90;;;;;;5017815;28;20499;-75
2023/09/11 02:15:45;;;;;;;20.45;13.60;;;20.30;99.90;;;;;;4998790;28;20101;-76
2023/09/11 02:18:11;;;;;;;20.38;13.77;;;20.30;99.90;;;;;;5017998;28;20037;-75
2023/09/11 02:20:36;;;;;;;22.05;13.00;;;20.30;99.90;;;;;;5019830;28;20398;-75
2023/09/11 02:23:02;;;;;;;18.65;13.07;;;20.30;99.90;;;;;;5017906;28;20465;-75
2023/09/11 02:25:28;;;;;;;20.05;13.68;;;20.30;99.90;;;;;;5019100;28;20037;-75
2023/09/11 02:27:53;;;;;;;23.40;14.55;;;20.30;99.90;;;;;;5017122;28;20049;-75
2023/09/11 02:30:19;;;;;;;24.42;14.68;;;20.30;99.90;;;;;;5018007;28;20065;-75
2023/09/11 02:32:44;;;;;;;19.98;12.60;;;20.30;99.90;;;;;;5019391;28;20376;-75
2023/09/11 02:35:10;;;;;;;21.70;14.13;;;20.30;99.90;;;;;;5018911;28;20042;-75
2023/09/11 02:37:35;;;;;;;22.83;13.95;;;20.30;99.90;;;;;;5000406;28;20493;-75
2023/09/11 02:40:01;;;;;;;20.73;14.32;;;20.30;99.90;;;;;;5017638;28;20065;-75
2023/09/11 02:42:27;;;;;;;19.58;14.27;;;20.20;99.90;;;;;;5018918;28;20086;-76
2023/09/11 02:44:52;;;;;;;24.23;15.30;;;20.20;99.90;;;;;;4999528;28;20046;-75
2023/09/11 02:47:18;;;;;;;28.05;14.55;;;20.20;99.90;;;;;;5019546;28;20042;-75
2023/09/11 02:49:43;;;;;;;20.83;14.35;;;20.10;99.90;;;;;;5018215;28;20081;-75
2023/09/11 02:52:09;;;;;;;21.23;13.68;;;20.10;99.90;;;;;;5019358;28;20096;-75
2023/09/11 02:54:34;;;;;;;21.13;13.88;;;20.10;99.90;;;;;;5016534;28;20041;-75
2023/09/11 02:57:00;;;;;;;23.50;13.85;;;20.10;99.90;;;;;;4999401;28;20038;-75
2023/09/11 02:59:25;;;;;;;19.90;12.88;;;20.10;99.90;;;;;;5018925;28;20076;-75
2023/09/11 03:01:51;;;;;;;21.50;14.43;;;20.00;99.90;;;;;;5017768;28;20062;-75
2023/09/11 03:04:16;;;;;;;21.20;13.77;;;20.00;99.90;;;;;;5018910;28;20030;-75
2023/09/11 03:06:42;;;;;;;22.20;13.65;;;20.00;99.90;;;;;;5017801;28;20060;-75
2023/09/11 03:09:07;;;;;;;18.02;13.45;;;19.90;99.90;;;;;;5017845;28;20042;-74
2023/09/11 03:11:33;;;;;;;22.45;13.68;;;19.90;99.90;;;;;;5014911;28;20039;-74
2023/09/11 03:13:59;;;;;;;19.27;13.55;;;19.90;99.90;;;;;;5019099;28;20042;-74
2023/09/11 03:16:24;;;;;;;19.02;13.60;;;19.90;99.90;;;;;;5016957;28;20491;-75
2023/09/11 03:18:50;;;;;;;20.40;13.38;;;19.90;99.90;;;;;;5019046;28;20486;-75
2023/09/11 03:21:15;;;;;;;21.52;14.38;;;19.90;99.90;;;;;;4997538;28;20038;-75
2023/09/11 03:23:41;;;;;;;17.35;12.48;;;19.90;99.90;;;;;;5014324;28;20125;-75
2023/09/11 03:26:14;;;;;;;24.73;14.48;;;19.90;99.90;;;;;;4995339;28;20494;-74
2023/09/11 03:28:43;;;;;;;20.13;13.80;;;19.90;99.90;;;;;;4997129;28;20064;-74
2023/09/11 03:31:08;;;;;;;19.60;12.80;;;19.80;99.90;;;;;;5014809;28;20095;-74
2023/09/11 03:33:34;;;;;;;21.48;13.02;;;19.80;99.90;;;;;;5014943;28;20049;-75
2023/09/11 03:35:59;;;;;;;20.92;13.68;;;19.80;99.90;;;;;;4995297;28;20042;-75
2023/09/11 03:38:25;;;;;;;18.48;13.25;;;19.80;99.90;;;;;;5014957;28;20076;-75
2023/09/11 03:40:50;;;;;;;21.50;12.85;;;19.70;99.90;;;;;;5015745;28;20052;-75
2023/09/11 03:43:16;;;;;;;18.60;13.57;;;19.70;99.90;;;;;;5013805;28;20037;-75
2023/09/11 03:45:41;;;;;;;17.17;12.82;;;19.60;99.90;;;;;;5014633;28;20432;-75
2023/09/11 03:48:07;;;;;;;21.38;14.25;;;19.60;99.90;;;;;;5016119;28;20494;-75
2023/09/11 03:50:32;;;;;;;18.58;13.68;;;19.50;99.90;;;;;;5017569;28;20038;-75
2023/09/11 03:52:58;;;;;;;18.98;13.73;;;19.60;99.90;;;;;;5014065;28;20037;-75
2023/09/11 03:55:23;;;;;;;17.15;13.50;;;19.60;99.90;;;;;;5014053;28;20153;-76
2023/09/11 03:57:49;;;;;;;22.10;14.60;;;19.60;99.90;;;;;;5011658;28;20046;-75
2023/09/11 04:00:15;;;;;;;20.67;14.27;;;19.60;99.90;;;;;;5011963;28;20403;-75
2023/09/11 04:02:41;;;;;;;20.38;13.65;;;19.50;99.90;;;;;;5012821;28;20507;-75
2023/09/11 04:05:07;;;;;;;22.27;14.20;;;19.50;99.90;;;;;;5013760;28;20494;-75
2023/09/11 04:07:32;;;;;;;19.17;13.07;;;19.50;99.90;;;;;;4979101;28;20044;-75
2023/09/11 04:09:58;;;;;;;21.65;13.63;;;19.50;99.90;;;;;;5014238;28;20041;-75
2023/09/11 04:12:24;;;;;;;18.88;13.63;;;19.50;99.90;;;;;;5015180;28;20098;-75
2023/09/11 04:14:50;;;;;;;21.40;13.73;;;19.50;99.90;;;;;;4999949;28;20367;-75
2023/09/11 04:17:16;;;;;;;21.02;14.55;;;19.40;99.90;;;;;;4996513;28;20133;-75
2023/09/11 04:19:42;;;;;;;18.85;13.27;;;19.40;99.90;;;;;;5013976;28;20096;-75
2023/09/11 04:22:08;;;;;;;20.08;13.52;;;19.40;99.90;;;;;;5015775;28;20033;-75
2023/09/11 04:24:34;;;;;;;24.05;14.95;;;19.40;99.90;;;;;;5013987;28;20549;-75
2023/09/11 04:27:00;;;;;;;21.33;13.80;;;19.30;99.90;;;;;;5013636;28;20221;-75
2023/09/11 04:29:25;;;;;;;22.10;14.10;;;19.30;99.90;;;;;;5013241;28;20486;-75
2023/09/11 04:31:51;;;;;;;17.77;13.48;;;19.30;99.90;;;;;;5012266;28;20041;-75
2023/09/11 04:34:17;;;;;;;23.40;14.25;;;19.30;99.90;;;;;;4996144;28;20072;-75
2023/09/11 04:36:43;;;;;;;21.60;14.15;;;19.20;99.90;;;;;;4996047;28;20050;-75
2023/09/11 04:39:08;;;;;;;20.58;14.35;;;19.20;99.90;;;;;;4995757;28;20064;-75
2023/09/11 04:41:34;;;;;;;20.45;15.02;;;19.30;99.90;;;;;;5013666;28;20049;-75
2023/09/11 04:43:59;;;;;;;21.65;14.48;;;19.30;99.90;;;;;;4995010;28;20046;-75
2023/09/11 04:46:25;;;;;;;23.02;15.00;;;19.30;99.90;;;;;;4995744;28;20053;-75
2023/09/11 04:48:50;;;;;;;23.45;14.82;;;19.30;99.90;;;;;;5016591;28;20042;-75
2023/09/11 04:51:16;;;;;;;23.48;14.43;;;19.30;99.90;;;;;;5013173;28;20042;-75
2023/09/11 04:53:42;;;;;;;24.58;15.27;;;19.30;99.90;;;;;;5013612;28;20372;-76
2023/09/11 04:56:07;;;;;;;28.25;15.52;;;19.40;99.90;;;;;;5012613;28;20495;-75
2023/09/11 04:58:33;;;;;;;24.30;15.07;;;19.30;99.90;;;;;;5012013;28;20038;-75
2023/09/11 05:00:58;;;;;;;26.73;14.57;;;19.40;99.90;;;;;;5010646;28;20038;-76
2023/09/11 05:03:24;;;;;;;22.42;14.43;;;19.40;99.90;;;;;;5013023;28;20034;-75
2023/09/11 05:05:50;;;;;;;23.48;14.10;;;19.40;99.90;;;;;;5011948;28;20391;-75
2023/09/11 05:08:15;;;;;;;18.83;13.73;;;19.40;99.90;;;;;;5012491;28;20033;-75
2023/09/11 05:10:42;;;;;;;26.30;14.77;;;19.40;99.90;;;;;;5012809;28;20100;-75
2023/09/11 05:13:07;;;;;;;22.60;14.52;;;19.40;99.90;;;;;;4996267;28;20120;-75
2023/09/11 05:15:33;;;;;;;24.10;14.82;;;19.40;99.90;;;;;;5014076;28;20065;-75
2023/09/11 05:17:59;;;;;;;25.02;14.73;;;19.40;99.90;;;;;;4979294;28;20040;-75
2023/09/11 05:20:24;;;;;;;23.45;14.70;;;19.40;99.90;;;;;;4996222;28;20129;-75
2023/09/11 05:22:50;;;;;;;24.83;15.30;;;19.40;99.90;;;;;;5012861;28;20038;-75
2023/09/11 05:25:16;;;;;;;27.00;15.43;;;19.40;99.90;;;;;;4998000;28;20050;-75
2023/09/11 05:27:41;;;;;;;21.73;14.98;;;19.30;99.90;;;;;;5013002;28;21434;-75
2023/09/11 05:30:07;;;;;;;21.52;14.75;;;19.30;99.90;;;;;;5013055;28;20395;-75
2023/09/11 05:32:33;;;;;;;22.90;14.95;;;19.30;99.90;;;;;;5011635;28;20050;-74
2023/09/11 05:34:59;;;;;;;24.90;14.90;;;19.30;99.90;;;;;;5012189;28;20041;-75
2023/09/11 05:37:24;;;;;;;19.77;14.05;;;19.40;99.90;;;;;;5012096;28;20091;-75
2023/09/11 05:39:50;;;;;;;20.20;13.77;;;19.40;99.90;;;;;;5013304;28;20042;-75
2023/09/11 05:42:15;;;;;;;21.42;13.65;;;19.40;99.90;;;;;;5011235;28;20509;-75
2023/09/11 05:44:41;;;;;;;25.40;15.13;;;19.50;99.90;;;;;;5011742;28;20504;-75
2023/09/11 05:47:07;;;;;;;24.67;14.63;;;19.50;99.90;;;;;;5013192;28;20513;-74
2023/09/11 05:49:33;;;;;;;26.85;14.65;;;19.50;99.90;;;;;;5017958;28;20084;-76
2023/09/11 05:51:59;;;;;;;23.92;14.80;;;19.50;99.90;;;;;;5019307;28;20080;-76
2023/09/11 05:54:24;;;;;;;27.35;13.90;;;19.50;99.90;;;;;;5010832;28;20037;-75
2023/09/11 05:56:52;;;;;;;24.60;15.40;;;19.50;99.90;;;;;;5013236;28;20030;-75
2023/09/11 05:59:19;;;;;;;24.98;14.63;;;19.50;99.90;;;;;;5012870;28;20057;-75
2023/09/11 06:01:48;;;;;;;22.13;15.68;;;19.60;99.90;;;;;;5013031;28;20049;-75
2023/09/11 06:04:14;;;;;;;23.88;14.25;;;19.70;99.90;;;;;;5009101;28;20498;-75
2023/09/11 06:06:40;;;;;;;26.58;14.75;;;19.60;99.90;;;;;;5014653;28;20048;-75
2023/09/11 06:09:08;;;;;;;24.27;15.20;;;19.70;99.90;;;;;;4996085;28;20042;-75
2023/09/11 06:11:34;;;;;;;22.63;14.82;;;19.80;99.90;;;;;;5011132;28;20165;-75
2023/09/11 06:14:00;;;;;;;28.23;14.40;;;19.80;99.90;;;;;;5011376;28;20069;-75
2023/09/11 06:16:25;;;;;;;26.60;14.73;;;19.80;99.90;;;;;;4994664;28;20069;-75
2023/09/11 06:18:51;;;;;;;24.95;14.57;;;19.90;99.90;;;;;;5013248;28;20038;-75
2023/09/11 06:21:17;;;;;;;23.75;14.57;;;19.90;99.90;;;;;;5012007;28;20081;-75
2023/09/11 06:23:43;;;;;;;23.65;15.07;;;20.10;99.90;;;;;;5013211;28;20458;-75
2023/09/11 06:26:09;;;;;;;21.15;13.80;;;20.10;99.90;;;;;;5012127;28;20096;-75
2023/09/11 06:28:34;;;;;;;24.70;15.10;;;20.20;99.90;;;;;;5013029;28;20089;-75
2023/09/11 06:31:00;;;;;;;23.42;14.32;;;20.20;99.90;;;;;;5012116;28;20037;-75
2023/09/11 06:33:27;;;;;;;23.67;14.95;;;20.30;99.90;;;;;;5012086;28;20155;-75
2023/09/11 06:35:54;;;;;;;26.15;15.02;;;20.40;99.90;;;;;;5012898;28;20077;-75
2023/09/11 06:38:20;;;;;;;23.83;15.93;;;20.30;99.90;;;;;;5011926;28;20120;-75
2023/09/11 06:40:45;;;;;;;26.98;16.35;;;20.50;99.90;;;;;;5013182;28;20168;-75
2023/09/11 06:43:11;;;;;;;23.33;15.00;;;20.50;99.90;;;;;;5012205;28;20042;-75
2023/09/11 06:45:38;;;;;;;26.30;15.70;;;20.50;99.90;;;;;;5016314;28;20094;-75
2023/09/11 06:48:04;;;;;;;24.58;16.27;;;20.60;99.90;;;;;;4997271;28;20068;-75
2023/09/11 06:50:30;;;;;;;25.67;16.45;;;20.50;99.90;;;;;;5016583;28;20514;-75
2023/09/11 06:52:56;;;;;;;33.05;16.63;;;20.60;99.90;;;;;;5015447;28;20088;-75
2023/09/11 06:55:21;;;;;;;23.27;15.80;;;20.60;99.90;;;;;;5015579;28;20052;-75
2023/09/11 06:57:58;;;;;;;26.73;14.70;;;20.60;99.90;;;;;;5015622;28;20395;-75
2023/09/11 07:00:24;;;;;;;26.05;16.45;;;20.70;99.90;;;;;;5013391;28;20048;-76
2023/09/11 07:02:49;;;;;;;24.20;16.63;;;20.80;99.90;;;;;;5016462;28;20037;-76
2023/09/11 07:05:20;;;;;;;26.70;15.48;;;20.80;99.90;;;;;;5014225;28;20046;-75
2023/09/11 07:07:46;;;;;;;27.35;16.33;;;21.00;99.90;;;;;;5016248;28;20073;-75
2023/09/11 07:10:22;;;;;;;24.83;15.18;;;21.00;99.90;;;;;;5014046;28;20483;-76
2023/09/11 07:12:49;;;;;;;23.17;16.08;;;21.10;99.90;;;;;;5015547;28;20038;-75
2023/09/11 07:15:16;;;;;;;23.98;15.50;;;21.30;99.90;;;;;;5015404;28;20044;-75
2023/09/11 07:17:42;;;;;;;22.73;15.57;;;21.30;99.90;;;;;;4998496;28;20125;-75
2023/09/11 07:20:09;;;;;;;25.45;15.38;;;21.30;99.90;;;;;;5013410;28;20038;-76
2023/09/11 07:22:35;;;;;;;21.23;13.35;;;21.40;99.90;;;;;;4980667;28;20092;-76
2023/09/11 07:25:00;;;;;;;26.52;15.07;;;21.50;99.90;;;;;;5015004;28;20037;-76
2023/09/11 07:27:33;;;;;;;24.23;14.50;;;21.70;99.90;;;;;;5020051;28;20037;-75
2023/09/11 07:29:59;;;;;;;22.70;14.43;;;21.80;99.90;;;;;;4995269;28;20045;-76
2023/09/11 07:32:25;;;;;;;20.55;13.75;;;21.90;99.90;;;;;;5014864;28;20076;-77
2023/09/11 07:34:51;;;;;;;23.67;13.50;;;22.10;99.90;;;;;;4998569;28;20449;-76
2023/09/11 07:37:16;;;;;;;24.08;13.32;;;22.20;99.90;;;;;;5015362;28;20060;-77
2023/09/11 07:39:42;;;;;;;21.52;13.20;;;22.30;99.90;;;;;;5014942;28;20042;-76
2023/09/11 07:42:08;;;;;;;20.88;13.23;;;22.50;99.90;;;;;;5015820;28;20402;-76
2023/09/11 07:44:33;;;;;;;21.40;13.77;;;22.60;99.90;;;;;;4998256;28;20091;-76
2023/09/11 07:46:59;;;;;;;21.38;12.90;;;22.70;99.90;;;;;;5016634;28;20045;-76
2023/09/11 07:49:24;;;;;;;17.25;11.57;;;22.80;99.90;;;;;;5017472;28;20399;-76
2023/09/11 07:51:50;;;;;;;16.38;10.63;;;22.90;99.90;;;;;;5014972;28;20100;-76
2023/09/11 07:54:16;;;;;;;17.00;11.43;;;23.00;99.90;;;;;;5015539;28;20033;-76
2023/09/11 07:56:41;;;;;;;20.17;10.43;;;23.10;99.90;;;;;;5015560;28;20040;-76
2023/09/11 07:59:07;;;;;;;21.08;12.85;;;23.20;99.90;;;;;;5014476;28;20510;-76
2023/09/11 08:01:32;;;;;;;19.80;11.00;;;23.30;99.90;;;;;;5013403;28;20041;-76
2023/09/11 08:03:58;;;;;;;19.77;11.75;;;23.30;99.90;;;;;;5015209;28;20041;-76
2023/09/11 08:06:24;;;;;;;19.80;12.40;;;23.30;99.90;;;;;;5016354;28;20044;-77
2023/09/11 08:08:49;;;;;;;22.60;13.07;;;23.50;99.90;;;;;;4998642;28;20038;-76
2023/09/11 08:11:18;;;;;;;20.90;12.43;;;23.60;99.90;;;;;;5014044;28;20042;-77
2023/09/11 08:13:46;;;;;;;19.55;11.32;;;23.60;99.90;;;;;;4998733;28;20069;-77
2023/09/11 08:16:12;;;;;;;19.27;11.95;;;23.80;99.90;;;;;;5014385;28;20050;-76
2023/09/11 08:18:37;;;;;;;17.90;10.85;;;23.80;99.90;;;;;;5017454;28;20552;-76
2023/09/11 08:21:04;;;;;;;18.92;11.20;;;23.90;99.90;;;;;;5014876;28;20042;-76
2023/09/11 08:23:30;;;;;;;15.93;11.55;;;23.90;99.90;;;;;;5015112;28;20037;-76
2023/09/11 08:25:56;;;;;;;18.30;11.80;;;24.00;99.90;;;;;;5012756;28;20045;-76
2023/09/11 08:28:22;;;;;;;15.38;10.77;;;24.00;99.90;;;;;;5015535;28;20555;-76
2023/09/11 08:30:50;;;;;;;19.65;10.98;;;24.00;99.90;;;;;;5014674;28;20057;-76
2023/09/11 08:33:15;;;;;;;19.60;10.93;;;24.00;99.90;;;;;;5014640;28;20089;-75
2023/09/11 08:35:42;;;;;;;19.80;9.90;;;24.10;99.90;;;;;;5013660;28;20499;-78
2023/09/11 08:38:08;;;;;;;18.08;10.02;;;24.20;99.90;;;;;;5015617;28;20038;-78
2023/09/11 08:40:34;;;;;;;20.45;9.85;;;24.20;99.90;;;;;;5014621;28;20118;-78
2023/09/11 08:43:00;;;;;;;18.80;9.55;;;24.20;99.90;;;;;;5014539;28;20122;-78
2023/09/11 08:45:26;;;;;;;14.63;9.00;;;24.30;99.90;;;;;;5013442;28;20037;-78
2023/09/11 08:47:57;;;;;;;15.57;10.55;;;24.40;99.90;;;;;;5016254;28;20409;-78
2023/09/11 08:50:28;;;;;;;14.93;9.50;;;24.40;99.90;;;;;;5014455;28;20038;-78
2023/09/11 08:52:57;;;;;;;18.13;9.30;;;24.50;99.90;;;;;;5014264;28;20495;-78
2023/09/11 08:55:24;;;;;;;13.85;8.27;;;24.70;99.90;;;;;;4995692;28;20510;-78
2023/09/11 08:57:50;;;;;;;16.10;8.52;;;24.70;99.90;;;;;;5015277;28;20084;-78
2023/09/11 09:00:16;;;;;;;22.08;8.95;;;24.80;99.90;;;;;;5014074;28;20486;-78
2023/09/11 09:02:43;;;;;;;16.88;9.07;;;24.80;99.90;;;;;;5014306;28;20056;-78
2023/09/11 09:05:10;;;;;;;15.52;9.07;;;24.90;99.90;;;;;;5013514;28;20050;-78
2023/09/11 09:07:37;;;;;;;17.55;8.95;;;25.00;99.90;;;;;;4996945;28;20041;-79
2023/09/11 09:10:04;;;;;;;18.35;9.00;;;25.00;99.90;;;;;;5012968;28;20045;-78
2023/09/11 09:12:31;;;;;;;16.02;8.35;;;25.00;99.90;;;;;;5013925;28;20487;-79
2023/09/11 09:14:58;;;;;;;19.98;9.32;;;25.10;99.90;;;;;;5014371;28;20042;-78
2023/09/11 09:17:24;;;;;;;19.50;9.32;;;25.20;99.90;;;;;;5011429;28;20033;-80
2023/09/11 09:19:49;;;;;;;16.15;9.82;;;25.20;99.90;;;;;;5014416;28;20041;-79
2023/09/11 09:22:16;;;;;;;20.30;10.15;;;25.30;99.90;;;;;;4977716;28;20063;-80
2023/09/11 09:24:54;;;;;;;15.43;9.32;;;25.30;99.90;;;;;;5013868;28;20052;-80
2023/09/11 09:27:21;;;;;;;17.88;10.10;;;25.40;99.90;;;;;;5011909;28;20034;-80
2023/09/11 09:29:48;;;;;;;19.85;10.10;;;25.40;99.90;;;;;;4996027;28;20124;-80
2023/09/11 09:32:14;;;;;;;18.60;9.98;;;25.50;99.90;;;;;;5013050;28;20045;-80
2023/09/11 09:34:49;;;;;;;16.13;9.60;;;25.60;99.90;;;;;;5013638;28;20451;-80
2023/09/11 09:37:17;;;;;;;16.75;9.85;;;25.70;99.90;;;;;;5012219;28;20402;-81
2023/09/11 09:39:44;;;;;;;15.05;9.23;;;25.80;99.90;;;;;;5012009;28;20052;-81
2023/09/11 09:42:11;;;;;;;21.85;10.10;;;25.80;99.90;;;;;;5006821;28;20048;-81
2023/09/11 09:44:39;;;;;;;16.73;9.77;;;25.90;99.90;;;;;;5013795;28;20045;-81
2023/09/11 09:47:07;;;;;;;16.80;8.93;;;25.90;99.90;;;;;;5012555;28;20052;-80
2023/09/11 09:49:56;;;;;;;16.63;9.52;;;25.90;99.90;;;;;;5013469;28;20037;-81
2023/09/11 09:52:27;;;;;;;14.63;8.88;;;25.90;99.90;;;;;;5022325;28;20490;-81
2023/09/11 09:54:55;;;;;;;15.57;9.43;;;25.90;99.90;;;;;;5019284;28;20188;-81
2023/09/11 09:57:23;;;;;;;15.43;9.57;;;25.90;99.90;;;;;;4977969;28;20049;-81
2023/09/11 09:59:52;;;;;;;16.42;10.02;;;26.00;99.90;;;;;;5023770;28;20033;-81
2023/09/11 10:02:27;;;;;;;15.43;10.15;;;26.00;99.90;;;;;;5013375;28;20052;-81
2023/09/11 10:05:02;;;;;;;15.40;10.00;;;26.10;99.90;;;;;;5013194;28;20134;-81
2023/09/11 10:08:00;;;;;;;15.98;9.50;;;26.10;99.90;;;;;;5010656;28;20403;-81
2023/09/11 10:10:30;;;;;;;18.50;9.60;;;26.20;99.90;;;;;;4959002;28;20072;-81
2023/09/11 10:13:09;;;;;;;16.63;9.77;;;26.20;99.90;;;;;;4993783;28;20406;-82
2023/09/11 10:15:36;;;;;;;15.57;9.65;;;26.30;99.90;;;;;;5011472;28;20104;-81
2023/09/11 10:18:03;;;;;;;14.27;10.15;;;26.30;99.90;;;;;;5010949;28;20050;-81
2023/09/11 10:20:29;;;;;;;17.65;10.60;;;26.40;99.90;;;;;;4997027;28;20034;-81
2023/09/11 10:22:58;;;;;;;14.85;10.10;;;26.40;99.90;;;;;;4997850;28;20046;-81
2023/09/11 10:25:26;;;;;;;15.38;10.45;;;26.40;99.90;;;;;;5015827;28;20048;-81
2023/09/11 10:28:03;;;;;;;12.70;10.02;;;26.40;99.90;;;;;;4999903;28;20121;-81
2023/09/11 10:30:37;;;;;;;15.93;10.50;;;26.40;99.90;;;;;;5016438;28;20100;-82
2023/09/11 10:33:10;;;;;;;15.18;10.75;;;26.40;99.90;;;;;;5019585;28;20049;-82
2023/09/11 10:35:39;;;;;;;14.95;10.38;;;26.50;99.90;;;;;;4999753;28;20136;-82
2023/09/11 10:38:07;;;;;;;15.90;10.48;;;26.50;99.90;;;;;;5008456;28;20500;-82
2023/09/11 10:40:34;;;;;;;14.38;10.45;;;26.60;99.90;;;;;;4998325;28;20046;-81
2023/09/11 10:43:00;;;;;;;16.88;10.23;;;26.60;99.90;;;;;;5015920;28;20422;-82
2023/09/11 10:45:32;;;;;;;16.42;10.35;;;26.50;99.90;;;;;;5001384;28;20034;-82
2023/09/11 10:47:57;;;;;;;16.50;9.93;;;26.50;99.90;;;;;;5006298;28;20479;-82
2023/09/11 10:50:24;;;;;;;13.82;10.18;;;26.50;99.90;;;;;;4993752;28;20045;-82
2023/09/11 10:52:54;;;;;;;14.93;9.88;;;26.60;99.90;;;;;;4997491;28;20475;-82
2023/09/11 10:55:23;;;;;;;15.70;10.32;;;26.50;99.90;;;;;;5012700;28;20041;-82
2023/09/11 10:57:51;;;;;;;15.82;10.02;;;26.60;99.90;;;;;;4996474;28;20041;-82
2023/09/11 11:00:17;;;;;;;18.08;10.80;;;26.70;99.90;;;;;;4994676;28;20058;-82
2023/09/11 11:02:43;;;;;;;14.73;10.73;;;26.70;99.90;;;;;;4999725;28;20044;-82
2023/09/11 11:05:14;;;;;;;16.60;11.05;;;26.80;99.90;;;;;;5014923;28;20116;-82
2023/09/11 11:07:41;;;;;;;;;;;26.70;99.90;;;;;;5015623;28;20038;-82
2023/09/11 11:10:11;;;;;;;16.20;11.07;;;26.50;99.90;;;;;;4981161;28;19929;-82
2023/09/11 11:12:37;;;;;;;20.05;11.40;;;26.60;99.90;;;;;;5011203;28;20038;-82
2023/09/11 11:15:24;;;;;;;16.52;10.75;;;26.70;99.90;;;;;;5014127;28;20056;-82
2023/09/11 11:18:12;;;;;;;18.33;11.75;;;26.70;99.90;;;;;;5015274;28;20038;-82
2023/09/11 11:21:00;;;;;;;15.63;10.68;;;26.70;99.90;;;;;;4998031;28;20080;-82
2023/09/11 11:23:29;;;;;;;17.88;10.32;;;26.70;99.90;;;;;;4985486;28;20053;-82
2023/09/11 11:26:00;;;;;;;17.85;10.38;;;26.80;99.90;;;;;;4983827;28;20536;-82
2023/09/11 11:28:36;;;;;;;15.75;11.73;;;26.60;99.90;;;;;;4997057;28;20057;-82
2023/09/11 11:31:03;;;;;;;15.65;10.50;;;26.70;99.90;;;;;;4993357;28;20050;-82
2023/09/11 11:33:30;;;;;;;19.77;10.50;;;26.70;99.90;;;;;;4994841;28;20585;-82
2023/09/11 11:35:57;;;;;;;15.15;10.82;;;26.70;99.90;;;;;;4980113;28;20030;-82
2023/09/11 11:38:23;;;;;;;15.23;10.95;;;26.80;99.90;;;;;;4997629;28;20042;-82
2023/09/11 11:40:49;;;;;;;16.90;10.98;;;26.80;99.90;;;;;;5011934;28;20034;-82
2023/09/11 11:43:14;;;;;;;17.50;11.07;;;26.80;99.90;;;;;;5015695;28;20096;-83
2023/09/11 11:45:47;;;;;;;15.30;10.98;;;26.90;99.90;;;;;;5014018;28;20045;-83
2023/09/11 11:48:14;;;;;;;16.88;11.82;;;26.90;99.90;;;;;;5013703;28;20445;-82
2023/09/11 11:50:46;;;;;;;15.27;11.20;;;26.80;99.90;;;;;;5013825;28;20046;-82
2023/09/11 11:53:19;;;;;;;16.08;10.70;;;26.80;99.90;;;;;;5006469;28;20046;-82
2023/09/11 11:55:46;;;;;;;13.95;8.63;;;26.80;99.90;;;;;;5015121;28;20073;-82
2023/09/11 11:58:13;;;;;;;15.70;9.27;;;26.80;99.90;;;;;;5012011;28;20038;-83
2023/09/11 12:01:01;;;;;;;14.15;8.30;;;26.80;99.90;;;;;;5015373;28;20072;-82
2023/09/11 12:03:28;;;;;;;14.20;7.97;;;26.80;99.90;;;;;;4997257;28;20125;-82
2023/09/11 12:05:54;;;;;;;12.48;6.95;;;26.90;99.90;;;;;;4981080;28;20045;-82
2023/09/11 12:08:20;;;;;;;13.10;7.43;;;26.90;99.90;;;;;;4993065;28;20081;-82
2023/09/11 12:10:50;;;;;;;11.85;7.10;;;26.90;99.90;;;;;;5008526;28;20042;-81
2023/09/11 12:13:23;;;;;;;13.32;8.38;;;26.90;99.90;;;;;;5014807;28;20073;-82
2023/09/11 12:15:57;;;;;;;13.60;8.07;;;26.90;99.90;;;;;;4981657;28;20124;-82
2023/09/11 12:18:23;;;;;;;12.48;7.47;;;26.90;99.90;;;;;;5013551;28;20096;-81
2023/09/11 12:20:59;;;;;;;11.80;7.30;;;26.90;99.90;;;;;;5014647;28;20041;-81
2023/09/11 12:23:25;;;;;;;12.32;7.70;;;26.90;99.90;;;;;;4997733;28;20041;-81
2023/09/11 12:25:51;;;;;;;14.82;7.75;;;26.80;99.90;;;;;;4997221;28;20479;-81
2023/09/11 12:28:22;;;;;;;11.27;7.20;;;26.90;99.90;;;;;;5013039;28;20064;-81
2023/09/11 12:30:48;;;;;;;13.30;7.32;;;26.90;99.90;;;;;;5014237;28;20490;-81